sensor_id;sensor_type;location;lat;lon;timestamp;pressure;altitude;pressure_sealevel;temperature;humidity
67818;BME280;54614;47.576;7.524;2022-07-01T00:02:23;98593.91;;;25.36;52.25
67818;BME280;54614;47.576;7.524;2022-07-01T00:04:50;98603.25;;;25.33;52.33
67818;BME280;54614;47.576;7.524;2022-07-01T00:07:17;98593.75;;;25.31;52.43
67818;BME280;54614;47.576;7.524;2022-07-01T00:09:43;98600.16;;;25.30;52.14
67818;BME280;54614;47.576;7.524;2022-07-01T00:12:09;98606.38;;;25.30;52.34
67818;BME280;54614;47.576;7.524;2022-07-01T00:14:35;98603.84;;;25.35;52.14
67818;BME280;54614;47.576;7.524;2022-07-01T00:17:02;98596.19;;;25.39;51.99
67818;BME280;54614;47.576;7.524;2022-07-01T00:19:28;98587.72;;;25.35;52.02
67818;BME280;54614;47.576;7.524;2022-07-01T00:21:54;98584.84;;;25.30;52.17
67818;BME280;54614;47.576;7.524;2022-07-01T00:24:20;98589.41;;;25.30;52.24
67818;BME280;54614;47.576;7.524;2022-07-01T00:26:46;98586.91;;;25.28;52.11
67818;BME280;54614;47.576;7.524;2022-07-01T00:29:12;98578.84;;;25.28;52.34
67818;BME280;54614;47.576;7.524;2022-07-01T00:31:37;98588.78;;;25.28;52.14
67818;BME280;54614;47.576;7.524;2022-07-01T00:34:03;98586.09;;;25.28;52.06
67818;BME280;54614;47.576;7.524;2022-07-01T00:36:29;98593.56;;;25.26;51.99
67818;BME280;54614;47.576;7.524;2022-07-01T00:38:55;98600.16;;;25.30;52.19
67818;BME280;54614;47.576;7.524;2022-07-01T00:41:21;98606.16;;;25.32;51.77
67818;BME280;54614;47.576;7.524;2022-07-01T00:43:47;98616.50;;;25.35;51.78
67818;BME280;54614;47.576;7.524;2022-07-01T00:46:14;98606.97;;;25.32;51.61
67818;BME280;54614;47.576;7.524;2022-07-01T00:48:40;98619.63;;;25.32;51.73
67818;BME280;54614;47.576;7.524;2022-07-01T00:51:07;98611.53;;;25.32;51.92
67818;BME280;54614;47.576;7.524;2022-07-01T00:53:33;98620.03;;;25.35;51.58
67818;BME280;54614;47.576;7.524;2022-07-01T00:55:59;98629.78;;;25.30;51.47
67818;BME280;54614;47.576;7.524;2022-07-01T00:58:28;98631.22;;;25.32;51.54
67818;BME280;54614;47.576;7.524;2022-07-01T01:00:56;98630.38;;;25.32;51.71
67818;BME280;54614;47.576;7.524;2022-07-01T01:03:22;98640.56;;;25.30;51.45
67818;BME280;54614;47.576;7.524;2022-07-01T01:05:49;98627.09;;;25.30;51.41
67818;BME280;54614;47.576;7.524;2022-07-01T01:08:16;98619.84;;;25.30;51.50
67818;BME280;54614;47.576;7.524;2022-07-01T01:10:43;98605.75;;;25.28;52.00
67818;BME280;54614;47.576;7.524;2022-07-01T01:13:09;98601.41;;;25.27;51.69
67818;BME280;54614;47.576;7.524;2022-07-01T01:15:36;98604.94;;;25.28;51.86
67818;BME280;54614;47.576;7.524;2022-07-01T01:18:03;98608.25;;;25.30;51.43
67818;BME280;54614;47.576;7.524;2022-07-01T01:20:36;98621.91;;;25.28;51.58
67818;BME280;54614;47.576;7.524;2022-07-01T01:23:03;98616.09;;;25.31;51.43
67818;BME280;54614;47.576;7.524;2022-07-01T01:25:33;98614.84;;;25.34;51.35
67818;BME280;54614;47.576;7.524;2022-07-01T01:28:03;98607.41;;;25.29;51.17
67818;BME280;54614;47.576;7.524;2022-07-01T01:30:29;98623.13;;;25.32;51.26
67818;BME280;54614;47.576;7.524;2022-07-01T01:32:55;98618.59;;;25.33;51.34
67818;BME280;54614;47.576;7.524;2022-07-01T01:35:22;98609.06;;;25.30;51.62
67818;BME280;54614;47.576;7.524;2022-07-01T01:37:48;98617.97;;;25.31;51.14
67818;BME280;54614;47.576;7.524;2022-07-01T01:40:14;98626.88;;;25.31;51.06
67818;BME280;54614;47.576;7.524;2022-07-01T01:42:45;98628.97;;;25.29;51.27
67818;BME280;54614;47.576;7.524;2022-07-01T01:45:12;98619.84;;;25.30;51.57
67818;BME280;54614;47.576;7.524;2022-07-01T01:47:38;98649.44;;;25.30;51.30
67818;BME280;54614;47.576;7.524;2022-07-01T01:50:07;98659.19;;;25.31;51.29
67818;BME280;54614;47.576;7.524;2022-07-01T01:52:33;98669.13;;;25.31;50.97
67818;BME280;54614;47.576;7.524;2022-07-01T01:55:00;98671.22;;;25.29;51.46
67818;BME280;54614;47.576;7.524;2022-07-01T01:57:27;98661.88;;;25.31;51.07
67818;BME280;54614;47.576;7.524;2022-07-01T01:59:53;98644.28;;;25.29;51.38
67818;BME280;54614;47.576;7.524;2022-07-01T02:02:19;98640.75;;;25.28;51.09
67818;BME280;54614;47.576;7.524;2022-07-01T02:04:45;98652.34;;;25.29;51.12
67818;BME280;54614;47.576;7.524;2022-07-01T02:07:10;98663.75;;;25.31;51.23
67818;BME280;54614;47.576;7.524;2022-07-01T02:09:36;98662.91;;;25.30;51.25
67818;BME280;54614;47.576;7.524;2022-07-01T02:12:03;98674.72;;;25.29;51.21
67818;BME280;54614;47.576;7.524;2022-07-01T02:14:30;98686.31;;;25.30;51.03
67818;BME280;54614;47.576;7.524;2022-07-01T02:16:56;98693.56;;;25.29;51.02
67818;BME280;54614;47.576;7.524;2022-07-01T02:19:22;98701.44;;;25.31;51.20
67818;BME280;54614;47.576;7.524;2022-07-01T02:21:47;98703.31;;;25.30;51.22
67818;BME280;54614;47.576;7.524;2022-07-01T02:24:17;98711.38;;;25.30;51.14
67818;BME280;54614;47.576;7.524;2022-07-01T02:26:44;98710.75;;;25.28;50.98
67818;BME280;54614;47.576;7.524;2022-07-01T02:29:10;98710.56;;;25.30;51.20
67818;BME280;54614;47.576;7.524;2022-07-01T02:31:36;98721.31;;;25.30;51.21
67818;BME280;54614;47.576;7.524;2022-07-01T02:34:02;98732.09;;;25.30;51.26
67818;BME280;54614;47.576;7.524;2022-07-01T02:36:28;98739.13;;;25.31;51.01
67818;BME280;54614;47.576;7.524;2022-07-01T02:38:54;98730.22;;;25.30;51.01
67818;BME280;54614;47.576;7.524;2022-07-01T02:41:20;98706.81;;;25.31;50.97
67818;BME280;54614;47.576;7.524;2022-07-01T02:43:46;98709.72;;;25.29;51.09
67818;BME280;54614;47.576;7.524;2022-07-01T02:46:12;98730.44;;;25.29;50.93
67818;BME280;54614;47.576;7.524;2022-07-01T02:48:38;98734.16;;;25.28;51.33
67818;BME280;54614;47.576;7.524;2022-07-01T02:51:04;98727.53;;;25.30;51.33
67818;BME280;54614;47.576;7.524;2022-07-01T02:53:30;98733.75;;;25.31;51.07
67818;BME280;54614;47.576;7.524;2022-07-01T02:55:56;98733.13;;;25.29;51.36
67818;BME280;54614;47.576;7.524;2022-07-01T02:58:22;98729.41;;;25.30;50.98
67818;BME280;54614;47.576;7.524;2022-07-01T03:00:48;98714.28;;;25.29;50.98
67818;BME280;54614;47.576;7.524;2022-07-01T03:03:16;98714.28;;;25.29;50.68
67818;BME280;54614;47.576;7.524;2022-07-01T03:05:42;98720.50;;;25.29;51.05
67818;BME280;54614;47.576;7.524;2022-07-01T03:08:08;98715.09;;;25.29;51.25
67818;BME280;54614;47.576;7.524;2022-07-01T03:10:34;98716.97;;;25.29;51.06
67818;BME280;54614;47.576;7.524;2022-07-01T03:12:59;98715.09;;;25.29;50.93
67818;BME280;54614;47.576;7.524;2022-07-01T03:15:27;98724.66;;;25.25;50.94
67818;BME280;54614;47.576;7.524;2022-07-01T03:17:53;98727.97;;;25.27;51.44
67818;BME280;54614;47.576;7.524;2022-07-01T03:20:19;98727.97;;;25.27;50.95
67818;BME280;54614;47.576;7.524;2022-07-01T03:22:46;98727.75;;;25.29;50.81
67818;BME280;54614;47.576;7.524;2022-07-01T03:25:13;98735.81;;;25.29;51.14
67818;BME280;54614;47.576;7.524;2022-07-01T03:27:39;98727.53;;;25.30;51.11
67818;BME280;54614;47.576;7.524;2022-07-01T03:30:11;98711.59;;;25.29;50.64
67818;BME280;54614;47.576;7.524;2022-07-01T03:32:37;98716.56;;;25.32;50.69
67818;BME280;54614;47.576;7.524;2022-07-01T03:35:03;98737.47;;;25.30;51.19
67818;BME280;54614;47.576;7.524;2022-07-01T03:37:49;98737.25;;;25.31;50.91
67818;BME280;54614;47.576;7.524;2022-07-01T03:40:16;98740.59;;;25.27;51.25
67818;BME280;54614;47.576;7.524;2022-07-01T03:42:41;98752.19;;;25.27;50.81
67818;BME280;54614;47.576;7.524;2022-07-01T03:45:08;98742.03;;;25.29;51.01
67818;BME280;54614;47.576;7.524;2022-07-01T03:47:34;98748.47;;;25.28;50.92
67818;BME280;54614;47.576;7.524;2022-07-01T03:50:00;98754.06;;;25.27;50.82
67818;BME280;54614;47.576;7.524;2022-07-01T03:52:26;98740.16;;;25.30;51.00
67818;BME280;54614;47.576;7.524;2022-07-01T03:54:52;98726.09;;;25.28;50.70
67818;BME280;54614;47.576;7.524;2022-07-01T03:57:17;98730.44;;;25.29;50.75
67818;BME280;54614;47.576;7.524;2022-07-01T03:59:43;98727.75;;;25.29;50.80
67818;BME280;54614;47.576;7.524;2022-07-01T04:02:09;98707.03;;;25.29;50.30
67818;BME280;54614;47.576;7.524;2022-07-01T04:04:35;98684.19;;;25.45;50.04
67818;BME280;54614;47.576;7.524;2022-07-01T04:07:05;98704.41;;;25.61;49.47
67818;BME280;54614;47.576;7.524;2022-07-01T04:09:32;98709.56;;;25.62;49.76
67818;BME280;54614;47.576;7.524;2022-07-01T04:11:58;98714.66;;;25.84;48.82
67818;BME280;54614;47.576;7.524;2022-07-01T04:14:25;98725.56;;;25.95;48.64
67818;BME280;54614;47.576;7.524;2022-07-01T04:16:51;98734.88;;;25.99;48.23
67818;BME280;54614;47.576;7.524;2022-07-01T04:19:20;98744.78;;;26.12;48.07
67818;BME280;54614;47.576;7.524;2022-07-01T04:21:46;98745.81;;;26.11;48.08
67818;BME280;54614;47.576;7.524;2022-07-01T04:24:30;98748.31;;;26.13;47.61
67818;BME280;54614;47.576;7.524;2022-07-01T04:26:58;98762.78;;;26.18;47.81
67818;BME280;54614;47.576;7.524;2022-07-01T04:29:25;98768.16;;;26.18;47.72
67818;BME280;54614;47.576;7.524;2022-07-01T04:31:52;98770.44;;;26.21;47.84
67818;BME280;54614;47.576;7.524;2022-07-01T04:34:18;98778.53;;;26.21;47.85
67818;BME280;54614;47.576;7.524;2022-07-01T04:36:44;98782.25;;;26.20;47.60
67818;BME280;54614;47.576;7.524;2022-07-01T04:39:10;98790.97;;;26.22;47.41
67818;BME280;54614;47.576;7.524;2022-07-01T04:41:36;98796.78;;;26.19;47.52
67818;BME280;54614;47.576;7.524;2022-07-01T04:44:21;98783.53;;;26.18;47.52
67818;BME280;54614;47.576;7.524;2022-07-01T04:46:47;98779.38;;;26.15;47.93
67818;BME280;54614;47.576;7.524;2022-07-01T04:49:13;98778.69;;;25.88;49.03
67818;BME280;54614;47.576;7.524;2022-07-01T04:51:39;98780.97;;;25.27;48.98
67818;BME280;54614;47.576;7.524;2022-07-01T04:54:07;98783.09;;;24.79;47.99
67818;BME280;54614;47.576;7.524;2022-07-01T04:56:33;98783.25;;;24.24;49.33
67818;BME280;54614;47.576;7.524;2022-07-01T04:59:01;98774.75;;;24.14;49.62
67818;BME280;54614;47.576;7.524;2022-07-01T05:01:27;98759.47;;;24.08;49.61
67818;BME280;54614;47.576;7.524;2022-07-01T05:03:57;98755.06;;;23.87;49.60
67818;BME280;54614;47.576;7.524;2022-07-01T05:06:24;98758.75;;;23.73;49.60
67818;BME280;54614;47.576;7.524;2022-07-01T05:08:50;98763.06;;;23.67;49.90
67818;BME280;54614;47.576;7.524;2022-07-01T05:11:16;98748.38;;;23.57;49.83
67818;BME280;54614;47.576;7.524;2022-07-01T05:13:42;98736.31;;;23.46;50.32
67818;BME280;54614;47.576;7.524;2022-07-01T05:16:07;98740.41;;;23.35;50.68
67818;BME280;54614;47.576;7.524;2022-07-01T05:18:37;98732.13;;;23.30;50.80
67818;BME280;54614;47.576;7.524;2022-07-01T05:21:22;98730.19;;;23.18;51.06
67818;BME280;54614;47.576;7.524;2022-07-01T05:24:07;98742.13;;;23.08;51.11
67818;BME280;54614;47.576;7.524;2022-07-01T05:26:34;98741.53;;;23.13;50.74
67818;BME280;54614;47.576;7.524;2022-07-01T05:29:01;98727.19;;;22.93;51.43
67818;BME280;54614;47.576;7.524;2022-07-01T05:31:26;98741.34;;;22.59;52.31
67818;BME280;54614;47.576;7.524;2022-07-01T05:33:52;98783.59;;;21.93;53.45
67818;BME280;54614;47.576;7.524;2022-07-01T05:36:18;98799.72;;;21.63;54.74
67818;BME280;54614;47.576;7.524;2022-07-01T05:38:44;98810.53;;;21.40;55.74
67818;BME280;54614;47.576;7.524;2022-07-01T05:41:10;98801.50;;;21.41;55.20
67818;BME280;54614;47.576;7.524;2022-07-01T05:43:36;98801.38;;;21.64;55.22
67818;BME280;54614;47.576;7.524;2022-07-01T05:46:02;98789.31;;;21.90;55.08
67818;BME280;54614;47.576;7.524;2022-07-01T05:48:28;98782.50;;;21.87;55.04
67818;BME280;54614;47.576;7.524;2022-07-01T05:50:54;98794.13;;;21.43;55.94
67818;BME280;54614;47.576;7.524;2022-07-01T05:53:20;98798.72;;;21.49;56.08
67818;BME280;54614;47.576;7.524;2022-07-01T05:55:46;98787.06;;;22.08;54.50
67818;BME280;54614;47.576;7.524;2022-07-01T05:58:13;98788.00;;;21.64;54.39
67818;BME280;54614;47.576;7.524;2022-07-01T06:00:40;98785.06;;;21.00;56.89
67818;BME280;54614;47.576;7.524;2022-07-01T06:03:12;98778.53;;;21.47;55.68
67818;BME280;54614;47.576;7.524;2022-07-01T06:05:38;98783.13;;;20.71;57.99
67818;BME280;54614;47.576;7.524;2022-07-01T06:08:05;98787.03;;;21.36;56.43
67818;BME280;54614;47.576;7.524;2022-07-01T06:10:32;98778.19;;;21.71;55.08
67818;BME280;54614;47.576;7.524;2022-07-01T06:12:58;98763.75;;;21.87;54.78
67818;BME280;54614;47.576;7.524;2022-07-01T06:15:25;98766.53;;;21.79;54.94
67818;BME280;54614;47.576;7.524;2022-07-01T06:17:51;98771.88;;;21.43;54.96
67818;BME280;54614;47.576;7.524;2022-07-01T06:20:18;98774.72;;;21.56;55.47
67818;BME280;54614;47.576;7.524;2022-07-01T06:22:44;98766.66;;;22.07;54.31
67818;BME280;54614;47.576;7.524;2022-07-01T06:25:10;98764.03;;;22.35;54.05
67818;BME280;54614;47.576;7.524;2022-07-01T06:27:43;98759.03;;;22.53;53.86
67818;BME280;54614;47.576;7.524;2022-07-01T06:30:10;98768.59;;;22.62;53.83
67818;BME280;54614;47.576;7.524;2022-07-01T06:32:37;98770.31;;;22.70;53.29
67818;BME280;54614;47.576;7.524;2022-07-01T06:35:04;98769.34;;;22.77;53.03
67818;BME280;54614;47.576;7.524;2022-07-01T06:37:29;98765.38;;;22.95;52.57
67818;BME280;54614;47.576;7.524;2022-07-01T06:40:00;98767.69;;;23.04;52.54
67818;BME280;54614;47.576;7.524;2022-07-01T06:42:26;98773.38;;;23.23;52.12
67818;BME280;54614;47.576;7.524;2022-07-01T06:44:52;98777.59;;;23.04;53.26
67818;BME280;54614;47.576;7.524;2022-07-01T06:47:18;98777.19;;;23.07;53.44
67818;BME280;54614;47.576;7.524;2022-07-01T06:49:44;98778.66;;;23.09;53.21
67818;BME280;54614;47.576;7.524;2022-07-01T06:52:10;98779.28;;;23.11;53.26
67818;BME280;54614;47.576;7.524;2022-07-01T06:54:36;98783.25;;;23.15;53.36
67818;BME280;54614;47.576;7.524;2022-07-01T06:57:04;98774.59;;;23.20;52.92
67818;BME280;54614;47.576;7.524;2022-07-01T06:59:30;98787.00;;;23.21;53.29
67818;BME280;54614;47.576;7.524;2022-07-01T07:01:56;98784.94;;;23.23;53.14
67818;BME280;54614;47.576;7.524;2022-07-01T07:04:22;98791.97;;;23.24;53.24
67818;BME280;54614;47.576;7.524;2022-07-01T07:06:48;98792.41;;;23.28;53.29
67818;BME280;54614;47.576;7.524;2022-07-01T07:09:14;98784.13;;;23.29;53.24
67818;BME280;54614;47.576;7.524;2022-07-01T07:11:40;98791.78;;;23.32;52.96
67818;BME280;54614;47.576;7.524;2022-07-01T07:14:06;98796.97;;;23.34;52.97
67818;BME280;54614;47.576;7.524;2022-07-01T07:16:31;98791.78;;;23.32;52.91
67818;BME280;54614;47.576;7.524;2022-07-01T07:18:57;98797.59;;;23.36;52.91
67818;BME280;54614;47.576;7.524;2022-07-01T07:21:23;98802.13;;;23.35;53.26
67818;BME280;54614;47.576;7.524;2022-07-01T07:23:49;98803.41;;;23.39;53.15
67818;BME280;54614;47.576;7.524;2022-07-01T07:26:16;98795.97;;;23.41;52.89
67818;BME280;54614;47.576;7.524;2022-07-01T07:28:42;98799.50;;;23.42;52.91
67818;BME280;54614;47.576;7.524;2022-07-01T07:31:08;98790.41;;;23.43;53.22
67818;BME280;54614;47.576;7.524;2022-07-01T07:33:34;98802.59;;;23.45;53.14
67818;BME280;54614;47.576;7.524;2022-07-01T07:35:59;98797.22;;;23.45;53.30
67818;BME280;54614;47.576;7.524;2022-07-01T07:38:25;98801.56;;;23.46;53.20
67818;BME280;54614;47.576;7.524;2022-07-01T07:40:51;98808.41;;;23.49;53.19
67818;BME280;54614;47.576;7.524;2022-07-01T07:43:17;98811.28;;;23.47;53.26
67818;BME280;54614;47.576;7.524;2022-07-01T07:45:43;98811.72;;;23.51;53.26
67818;BME280;54614;47.576;7.524;2022-07-01T07:48:09;98812.34;;;23.53;53.19
67818;BME280;54614;47.576;7.524;2022-07-01T07:50:35;98815.03;;;23.53;53.25
67818;BME280;54614;47.576;7.524;2022-07-01T07:53:02;98811.16;;;23.56;52.88
67818;BME280;54614;47.576;7.524;2022-07-01T07:55:28;98821.69;;;23.57;53.21
67818;BME280;54614;47.576;7.524;2022-07-01T07:57:54;98826.22;;;23.57;52.67
67818;BME280;54614;47.576;7.524;2022-07-01T08:00:20;98830.38;;;23.59;53.08
67818;BME280;54614;47.576;7.524;2022-07-01T08:02:47;98833.88;;;23.60;53.06
67818;BME280;54614;47.576;7.524;2022-07-01T08:05:13;98838.22;;;23.61;52.99
67818;BME280;54614;47.576;7.524;2022-07-01T08:07:41;98840.91;;;23.61;53.08
67818;BME280;54614;47.576;7.524;2022-07-01T08:10:11;98839.06;;;23.61;52.85
67818;BME280;54614;47.576;7.524;2022-07-01T08:12:37;98843.00;;;23.65;52.75
67818;BME280;54614;47.576;7.524;2022-07-01T08:15:05;98838.66;;;23.64;53.04
67818;BME280;54614;47.576;7.524;2022-07-01T08:17:31;98834.31;;;23.63;52.76
67818;BME280;54614;47.576;7.524;2022-07-01T08:19:57;98837.63;;;23.65;52.91
67818;BME280;54614;47.576;7.524;2022-07-01T08:22:23;98844.03;;;23.64;52.96
67818;BME280;54614;47.576;7.524;2022-07-01T08:24:50;98833.91;;;23.66;52.87
67818;BME280;54614;47.576;7.524;2022-07-01T08:27:16;98829.38;;;23.67;53.11
67818;BME280;54614;47.576;7.524;2022-07-01T08:29:42;98827.53;;;23.67;52.90
67818;BME280;54614;47.576;7.524;2022-07-01T08:32:08;98830.00;;;23.69;52.93
67818;BME280;54614;47.576;7.524;2022-07-01T08:34:35;98832.50;;;23.70;52.73
67818;BME280;54614;47.576;7.524;2022-07-01T08:37:04;98831.47;;;23.71;52.98
67818;BME280;54614;47.576;7.524;2022-07-01T08:39:30;98827.13;;;23.70;52.92
67818;BME280;54614;47.576;7.524;2022-07-01T08:41:57;98821.56;;;23.72;52.90
67818;BME280;54614;47.576;7.524;2022-07-01T08:44:23;98826.72;;;23.73;52.81
67818;BME280;54614;47.576;7.524;2022-07-01T08:46:50;98833.75;;;23.74;52.88
67818;BME280;54614;47.576;7.524;2022-07-01T08:49:17;98826.72;;;23.73;52.75
67818;BME280;54614;47.576;7.524;2022-07-01T08:51:43;98823.63;;;23.76;52.76
67818;BME280;54614;47.576;7.524;2022-07-01T08:54:09;98830.88;;;23.76;52.58
67818;BME280;54614;47.576;7.524;2022-07-01T08:56:35;98823.84;;;23.75;52.61
67818;BME280;54614;47.576;7.524;2022-07-01T08:59:09;98824.66;;;23.75;52.94
67818;BME280;54614;47.576;7.524;2022-07-01T09:01:36;98824.47;;;23.77;52.71
67818;BME280;54614;47.576;7.524;2022-07-01T09:04:17;98822.41;;;23.79;52.59
67818;BME280;54614;47.576;7.524;2022-07-01T09:06:44;98823.44;;;23.78;52.65
67818;BME280;54614;47.576;7.524;2022-07-01T09:09:20;98817.03;;;23.79;52.97
67818;BME280;54614;47.576;7.524;2022-07-01T09:11:49;98822.22;;;23.81;52.57
67818;BME280;54614;47.576;7.524;2022-07-01T09:14:25;98823.44;;;23.78;52.87
67818;BME280;54614;47.576;7.524;2022-07-01T09:16:54;98826.75;;;23.80;52.84
67818;BME280;54614;47.576;7.524;2022-07-01T09:19:25;98828.41;;;23.81;52.93
67818;BME280;54614;47.576;7.524;2022-07-01T09:21:54;98821.56;;;23.78;52.97
67818;BME280;54614;47.576;7.524;2022-07-01T09:24:40;98815.81;;;23.82;52.63
67818;BME280;54614;47.576;7.524;2022-07-01T09:27:14;98821.38;;;23.80;53.03
67818;BME280;54614;47.576;7.524;2022-07-01T09:29:52;98823.66;;;23.83;53.15
67818;BME280;54614;47.576;7.524;2022-07-01T09:32:20;98818.91;;;23.78;53.15
67818;BME280;54614;47.576;7.524;2022-07-01T09:34:52;98826.53;;;23.75;54.41
67818;BME280;54614;47.576;7.524;2022-07-01T09:37:21;98821.78;;;23.77;54.48
67818;BME280;54614;47.576;7.524;2022-07-01T09:39:56;98827.78;;;23.79;54.53
67818;BME280;54614;47.576;7.524;2022-07-01T09:42:26;98829.44;;;23.80;54.24
67818;BME280;54614;47.576;7.524;2022-07-01T09:45:06;98827.38;;;23.82;53.83
67818;BME280;54614;47.576;7.524;2022-07-01T09:47:39;98828.44;;;23.88;53.48
67818;BME280;54614;47.576;7.524;2022-07-01T09:50:08;98827.19;;;23.84;53.31
67818;BME280;54614;47.576;7.524;2022-07-01T09:52:34;98831.94;;;23.88;52.92
67818;BME280;54614;47.576;7.524;2022-07-01T09:55:00;98830.50;;;23.86;53.21
67818;BME280;54614;47.576;7.524;2022-07-01T09:57:26;98833.19;;;23.86;52.87
67818;BME280;54614;47.576;7.524;2022-07-01T09:59:52;98848.47;;;23.85;53.24
67818;BME280;54614;47.576;7.524;2022-07-01T10:02:21;98857.97;;;23.88;53.03
67818;BME280;54614;47.576;7.524;2022-07-01T10:05:11;98861.94;;;23.92;52.25
67818;BME280;54614;47.576;7.524;2022-07-01T10:11:01;98867.56;;;24.10;51.69
67818;BME280;54614;47.576;7.524;2022-07-01T10:13:34;98865.75;;;24.17;51.48
67818;BME280;54614;47.576;7.524;2022-07-01T10:16:03;98872.34;;;24.15;51.29
67818;BME280;54614;47.576;7.524;2022-07-01T10:18:30;98876.78;;;24.35;50.78
67818;BME280;54614;47.576;7.524;2022-07-01T10:20:58;98875.22;;;24.13;51.52
67818;BME280;54614;47.576;7.524;2022-07-01T10:23:36;98875.38;;;23.98;51.99
67818;BME280;54614;47.576;7.524;2022-07-01T10:26:05;98875.59;;;23.97;51.83
67818;BME280;54614;47.576;7.524;2022-07-01T10:31:18;98870.63;;;23.94;52.32
67818;BME280;54614;47.576;7.524;2022-07-01T10:33:54;98872.28;;;23.95;52.39
67818;BME280;54614;47.576;7.524;2022-07-01T10:36:32;98864.41;;;23.93;51.99
67818;BME280;54614;47.576;7.524;2022-07-01T10:44:20;98863.19;;;23.96;52.50
67818;BME280;54614;47.576;7.524;2022-07-01T10:46:53;98870.44;;;24.02;52.24
67818;BME280;54614;47.576;7.524;2022-07-01T10:52:11;98864.03;;;24.03;52.22
67818;BME280;54614;47.576;7.524;2022-07-01T10:54:44;98864.03;;;24.03;52.31
67818;BME280;54614;47.576;7.524;2022-07-01T10:59:52;98860.31;;;24.04;52.49
67818;BME280;54614;47.576;7.524;2022-07-01T11:02:24;98862.19;;;24.03;52.38
67818;BME280;54614;47.576;7.524;2022-07-01T11:05:12;98864.47;;;24.06;52.41
67818;BME280;54614;47.576;7.524;2022-07-01T11:07:42;98865.91;;;24.09;52.67
67818;BME280;54614;47.576;7.524;2022-07-01T11:10:11;98870.69;;;24.14;52.33
67818;BME280;54614;47.576;7.524;2022-07-01T11:12:39;98866.97;;;24.15;52.57
67818;BME280;54614;47.576;7.524;2022-07-01T11:15:06;98869.34;;;24.37;52.16
67818;BME280;54614;47.576;7.524;2022-07-01T11:17:34;98863.75;;;24.39;52.27
67818;BME280;54614;47.576;7.524;2022-07-01T11:20:01;98863.78;;;24.52;51.57
67818;BME280;54614;47.576;7.524;2022-07-01T11:22:35;98867.72;;;24.50;51.78
67818;BME280;54614;47.576;7.524;2022-07-01T11:25:09;98869.16;;;24.59;51.61
67818;BME280;54614;47.576;7.524;2022-07-01T11:27:36;98858.81;;;24.56;51.67
67818;BME280;54614;47.576;7.524;2022-07-01T11:30:09;98867.50;;;24.51;52.22
67818;BME280;54614;47.576;7.524;2022-07-01T11:32:51;98864.59;;;24.53;51.97
67818;BME280;54614;47.576;7.524;2022-07-01T11:35:24;98866.25;;;24.40;52.36
67818;BME280;54614;47.576;7.524;2022-07-01T11:38:16;98866.44;;;24.32;52.40
67818;BME280;54614;47.576;7.524;2022-07-01T11:41:04;98871.75;;;24.26;52.59
67818;BME280;54614;47.576;7.524;2022-07-01T11:43:34;98865.75;;;24.24;52.69
67818;BME280;54614;47.576;7.524;2022-07-01T11:46:03;98875.06;;;24.21;52.73
67818;BME280;54614;47.576;7.524;2022-07-01T11:48:48;98866.38;;;24.19;53.04
67818;BME280;54614;47.576;7.524;2022-07-01T11:51:21;98865.53;;;24.19;52.85
67818;BME280;54614;47.576;7.524;2022-07-01T11:53:53;98865.53;;;24.19;52.69
67818;BME280;54614;47.576;7.524;2022-07-01T11:56:32;98864.91;;;24.17;52.68
67818;BME280;54614;47.576;7.524;2022-07-01T11:58:58;98861.19;;;24.18;52.79
67818;BME280;54614;47.576;7.524;2022-07-01T12:03:54;98854.63;;;24.27;52.63
67818;BME280;54614;47.576;7.524;2022-07-01T12:06:22;98851.28;;;24.25;52.38
67818;BME280;54614;47.576;7.524;2022-07-01T12:08:50;98854.63;;;24.27;52.81
67818;BME280;54614;47.576;7.524;2022-07-01T12:11:17;98859.19;;;24.26;52.67
67818;BME280;54614;47.576;7.524;2022-07-01T12:13:46;98850.91;;;24.28;52.52
67818;BME280;54614;47.576;7.524;2022-07-01T12:16:13;98850.50;;;24.31;52.50
67818;BME280;54614;47.576;7.524;2022-07-01T12:18:39;98848.59;;;24.25;52.51
67818;BME280;54614;47.576;7.524;2022-07-01T12:21:15;98842.84;;;24.34;52.17
67818;BME280;54614;47.576;7.524;2022-07-01T12:23:41;98847.41;;;24.34;52.52
67818;BME280;54614;47.576;7.524;2022-07-01T12:26:07;98845.75;;;24.39;52.20
67818;BME280;54614;47.576;7.524;2022-07-01T12:28:38;98849.50;;;24.38;52.15
67818;BME280;54614;47.576;7.524;2022-07-01T12:31:10;98842.88;;;24.54;51.79
67818;BME280;54614;47.576;7.524;2022-07-01T12:33:39;98852.19;;;24.52;51.98
67818;BME280;54614;47.576;7.524;2022-07-01T12:36:07;98849.28;;;24.47;52.00
67818;BME280;54614;47.576;7.524;2022-07-01T12:38:34;98847.22;;;24.49;52.05
67818;BME280;54614;47.576;7.524;2022-07-01T12:41:00;98843.94;;;24.53;52.03
67818;BME280;54614;47.576;7.524;2022-07-01T12:43:31;98852.19;;;24.52;52.38
67818;BME280;54614;47.576;7.524;2022-07-01T12:46:00;98853.44;;;24.49;52.08
67818;BME280;54614;47.576;7.524;2022-07-01T12:48:27;98849.50;;;24.52;52.17
67818;BME280;54614;47.576;7.524;2022-07-01T12:50:56;98836.06;;;24.52;52.36
67818;BME280;54614;47.576;7.524;2022-07-01T12:53:24;98839.78;;;24.51;52.38
67818;BME280;54614;47.576;7.524;2022-07-01T12:55:55;98849.50;;;24.52;52.03
67818;BME280;54614;47.576;7.524;2022-07-01T12:58:24;98834.41;;;24.51;52.26
67818;BME280;54614;47.576;7.524;2022-07-01T13:00:56;98839.78;;;24.51;52.35
67818;BME280;54614;47.576;7.524;2022-07-01T13:03:26;98830.88;;;24.50;52.59
67818;BME280;54614;47.576;7.524;2022-07-01T13:05:54;98826.34;;;24.51;52.33
67818;BME280;54614;47.576;7.524;2022-07-01T13:08:21;98829.03;;;24.51;52.25
67818;BME280;54614;47.576;7.524;2022-07-01T13:10:48;98831.09;;;24.55;52.15
67818;BME280;54614;47.576;7.524;2022-07-01T13:13:15;98820.97;;;24.51;52.42
67818;BME280;54614;47.576;7.524;2022-07-01T13:15:43;98822.63;;;24.52;52.22
67818;BME280;54614;47.576;7.524;2022-07-01T13:18:10;98826.97;;;24.53;52.35
67818;BME280;54614;47.576;7.524;2022-07-01T13:20:36;98829.66;;;24.53;52.55
67818;BME280;54614;47.576;7.524;2022-07-01T13:23:04;98830.88;;;24.50;52.46
67818;BME280;54614;47.576;7.524;2022-07-01T13:25:31;98829.03;;;24.51;52.34